createdAt,value
2022-08-02T00:02:00.620Z,2.53
2022-08-02T00:06:33.055Z,3.05
2022-08-02T00:10:58.429Z,2.78
2022-08-02T00:19:50.805Z,3.33
2022-08-02T00:24:29.074Z,3.03
2022-08-02T00:28:36.061Z,2.58
2022-08-02T00:41:57.909Z,2.40
2022-08-02T00:46:28.001Z,2.72
2022-08-02T00:51:24.650Z,2.15
2022-08-02T00:56:08.716Z,1.90
2022-08-02T01:00:22.426Z,2.25
2022-08-02T01:09:22.913Z,2.15
2022-08-02T01:13:45.375Z,2.22
2022-08-02T01:23:20.423Z,2.03
2022-08-02T01:28:03.707Z,2.38
2022-08-02T01:32:20.288Z,1.83
2022-08-02T01:36:47.987Z,2.10
2022-08-02T01:41:06.935Z,2.00
2022-08-02T01:45:15.830Z,1.60
2022-08-02T01:49:25.634Z,2.80
2022-08-02T01:53:29.903Z,1.88
2022-08-02T01:57:51.664Z,1.75
2022-08-02T02:02:02.862Z,1.60
2022-08-02T02:06:12.667Z,2.50
2022-08-02T02:10:25.245Z,1.83
2022-08-02T02:14:30.776Z,2.10
2022-08-02T02:18:41.234Z,2.05
2022-08-02T02:22:55.771Z,2.17
2022-08-02T02:27:14.804Z,2.13
2022-08-02T02:31:21.760Z,1.73
2022-08-02T02:35:39.194Z,2.45
2022-08-02T02:40:03.671Z,2.25
2022-08-02T02:44:33.088Z,2.00
2022-08-02T03:07:20.017Z,2.10
2022-08-02T03:16:29.669Z,2.40
2022-08-02T03:20:38.275Z,1.80
2022-08-02T03:24:45.122Z,1.83
2022-08-02T03:28:52.383Z,2.30
2022-08-02T03:33:03.412Z,2.58
2022-08-02T03:37:13.905Z,2.20
2022-08-02T03:41:23.279Z,1.95
2022-08-02T03:45:36.137Z,2.13
2022-08-02T03:49:44.256Z,1.85
2022-08-02T03:53:49.215Z,2.08
2022-08-02T03:57:55.284Z,1.95
2022-08-02T04:02:23.768Z,1.75
2022-08-02T04:07:09.226Z,2.10
2022-08-02T04:16:20.908Z,1.90
2022-08-02T04:20:39.745Z,2.35
2022-08-02T04:24:52.884Z,1.95
2022-08-02T04:29:00.243Z,2.17
2022-08-02T04:33:05.182Z,2.15
2022-08-02T04:37:11.181Z,1.98
2022-08-02T04:41:22.872Z,1.80
2022-08-02T04:45:30.813Z,1.90
2022-08-02T04:49:35.022Z,1.92
2022-08-02T04:53:42.649Z,2.15
2022-08-02T04:58:06.742Z,1.58
2022-08-02T05:06:43.337Z,2.25
2022-08-02T05:10:45.184Z,2.08
2022-08-02T05:14:49.438Z,2.22
2022-08-02T05:18:53.671Z,2.08
2022-08-02T05:23:01.795Z,2.47
2022-08-02T05:27:17.160Z,2.88
2022-08-02T05:31:27.154Z,2.17
2022-08-02T05:35:36.700Z,2.70
2022-08-02T05:39:38.334Z,2.53
2022-08-02T05:44:03.776Z,2.30
2022-08-02T05:57:43.664Z,2.17
2022-08-02T06:01:49.001Z,2.33
2022-08-02T06:10:48.255Z,2.33
2022-08-02T06:14:54.410Z,2.47
2022-08-02T06:18:59.157Z,2.35
2022-08-02T06:23:05.247Z,2.63
2022-08-02T06:27:06.736Z,2.13
2022-08-02T06:31:08.414Z,2.05
2022-08-02T06:35:10.279Z,3.13
2022-08-02T06:39:23.528Z,2.80
2022-08-02T06:43:39.291Z,3.50
2022-08-02T06:47:41.249Z,3.22
2022-08-02T06:51:42.696Z,2.20
2022-08-02T06:55:44.509Z,2.30
2022-08-02T06:59:45.973Z,2.50
2022-08-02T07:03:47.522Z,2.53
2022-08-02T07:07:49.055Z,3.22
2022-08-02T07:11:50.507Z,2.97
2022-08-02T07:15:51.948Z,3.50
2022-08-02T07:19:53.784Z,3.03
2022-08-02T07:23:55.296Z,2.95
2022-08-02T07:27:56.682Z,2.60
2022-08-02T07:31:58.215Z,3.55
2022-08-02T07:36:00.567Z,2.90
2022-08-02T07:40:12.351Z,3.63
2022-08-02T07:44:15.054Z,3.33
2022-08-02T07:48:16.474Z,3.47
2022-08-02T07:52:18.083Z,4.10
2022-08-02T07:56:19.654Z,3.60
2022-08-02T08:00:21.081Z,3.53
2022-08-02T08:04:22.500Z,3.08
2022-08-02T08:08:24.106Z,4.18
2022-08-02T08:12:25.519Z,4.13
2022-08-02T08:16:29.033Z,3.13
2022-08-02T08:20:30.478Z,4.00
2022-08-02T08:24:31.938Z,3.55
2022-08-02T08:28:33.519Z,3.83
2022-08-02T08:32:34.964Z,4.47
2022-08-02T08:36:37.916Z,4.07
2022-08-02T08:40:40.689Z,3.70
2022-08-02T08:44:42.154Z,4.35
2022-08-02T08:48:50.029Z,5.05
2022-08-02T08:53:03.696Z,3.75
2022-08-02T08:57:06.428Z,3.67
2022-08-02T19:56:54.581Z,4.60
2022-08-02T20:00:59.021Z,4.35
2022-08-02T20:05:00.678Z,4.22
2022-08-02T20:09:10.863Z,10.60
2022-08-02T20:13:17.948Z,8.60
2022-08-02T20:17:25.164Z,4.35
2022-08-02T20:21:35.612Z,3.83
2022-08-02T20:25:38.220Z,4.43
2022-08-02T20:29:48.692Z,3.88
2022-08-02T20:33:55.748Z,4.72
2022-08-02T20:38:02.079Z,5.60
2022-08-02T20:42:22.673Z,7.65
2022-08-02T20:46:25.849Z,4.40
2022-08-02T20:50:46.127Z,5.13
2022-08-02T20:54:51.456Z,9.70
2022-08-02T20:58:52.962Z,5.72
2022-08-02T21:02:54.454Z,5.03
2022-08-02T21:06:59.193Z,4.32
2022-08-02T21:11:01.376Z,4.00
2022-08-02T21:15:11.431Z,4.68
2022-08-02T21:19:14.019Z,4.32
2022-08-02T21:23:19.954Z,3.97
2022-08-02T21:27:53.361Z,4.63
2022-08-02T21:31:46.820Z,4.47
2022-08-02T21:35:48.442Z,4.65
2022-08-02T21:39:51.774Z,3.95
2022-08-02T21:44:01.776Z,4.32
2022-08-02T21:48:10.037Z,3.63
2022-08-02T21:52:14.862Z,4.20
2022-08-02T21:56:18.275Z,3.92
2022-08-02T22:00:28.383Z,3.90
2022-08-02T22:04:30.765Z,3.97
2022-08-02T22:08:32.359Z,4.70
2022-08-02T22:12:34.197Z,4.10
2022-08-02T22:16:37.256Z,3.55
2022-08-02T22:20:38.865Z,4.03
2022-08-02T22:24:42.274Z,3.92
2022-08-02T22:28:52.830Z,3.92
2022-08-02T22:33:14.936Z,3.75
2022-08-02T22:38:14.840Z,4.93
2022-08-02T22:42:01.854Z,4.40
2022-08-02T22:46:00.468Z,4.13
2022-08-02T22:50:02.179Z,3.78
2022-08-02T22:54:03.853Z,3.58
2022-08-02T22:58:05.414Z,4.15
2022-08-02T23:02:08.683Z,3.67
2022-08-02T23:06:10.266Z,3.75
2022-08-02T23:10:11.884Z,4.45
2022-08-02T23:14:13.422Z,3.85
2022-08-02T23:18:33.676Z,4.13
2022-08-02T23:22:35.950Z,3.55
2022-08-02T23:26:37.460Z,4.05
2022-08-02T23:30:39.092Z,4.20
2022-08-02T23:34:40.826Z,4.35
2022-08-02T23:38:42.368Z,3.28
2022-08-02T23:42:43.875Z,3.53
2022-08-02T23:46:46.663Z,3.88
2022-08-02T23:50:48.201Z,3.67
2022-08-02T23:54:49.785Z,4.13
2022-08-02T23:58:51.315Z,4.25
